sensor_id;sensor_type;location;lat;lon;timestamp;temperature;humidity
16267;DHT22;8241;48.786;9.250;2023-06-10T00:00:44;20.20;91.90
16267;DHT22;8241;48.786;9.250;2023-06-10T00:03:11;20.10;91.70
16267;DHT22;8241;48.786;9.250;2023-06-10T00:05:38;20.10;91.80
16267;DHT22;8241;48.786;9.250;2023-06-10T00:08:09;20.10;91.80
16267;DHT22;8241;48.786;9.250;2023-06-10T00:10:38;20.00;91.90
16267;DHT22;8241;48.786;9.250;2023-06-10T00:13:06;20.00;91.90
16267;DHT22;8241;48.786;9.250;2023-06-10T00:15:34;20.00;92.10
16267;DHT22;8241;48.786;9.250;2023-06-10T00:18:02;19.90;92.00
16267;DHT22;8241;48.786;9.250;2023-06-10T00:20:29;19.90;92.30
16267;DHT22;8241;48.786;9.250;2023-06-10T00:22:57;19.90;92.20
16267;DHT22;8241;48.786;9.250;2023-06-10T00:25:26;19.90;92.40
16267;DHT22;8241;48.786;9.250;2023-06-10T00:27:53;19.80;92.10
16267;DHT22;8241;48.786;9.250;2023-06-10T00:30:20;19.80;92.20
16267;DHT22;8241;48.786;9.250;2023-06-10T00:32:47;19.80;92.50
16267;DHT22;8241;48.786;9.250;2023-06-10T00:35:14;19.80;92.60
16267;DHT22;8241;48.786;9.250;2023-06-10T00:37:44;19.70;92.60
16267;DHT22;8241;48.786;9.250;2023-06-10T00:40:12;19.70;92.60
16267;DHT22;8241;48.786;9.250;2023-06-10T00:42:43;19.70;92.60
16267;DHT22;8241;48.786;9.250;2023-06-10T00:45:11;19.60;92.90
16267;DHT22;8241;48.786;9.250;2023-06-10T00:47:39;19.60;93.00
16267;DHT22;8241;48.786;9.250;2023-06-10T00:50:07;19.60;93.10
16267;DHT22;8241;48.786;9.250;2023-06-10T00:52:35;19.60;93.00
16267;DHT22;8241;48.786;9.250;2023-06-10T00:55:02;19.60;93.10
16267;DHT22;8241;48.786;9.250;2023-06-10T00:57:36;19.60;93.10
16267;DHT22;8241;48.786;9.250;2023-06-10T01:00:07;19.50;93.10
16267;DHT22;8241;48.786;9.250;2023-06-10T01:02:36;19.50;93.30
16267;DHT22;8241;48.786;9.250;2023-06-10T01:05:06;19.50;93.30
16267;DHT22;8241;48.786;9.250;2023-06-10T01:07:39;19.40;93.30
16267;DHT22;8241;48.786;9.250;2023-06-10T01:10:12;19.40;93.40
16267;DHT22;8241;48.786;9.250;2023-06-10T01:12:46;19.40;93.40
16267;DHT22;8241;48.786;9.250;2023-06-10T01:15:19;19.40;93.30
16267;DHT22;8241;48.786;9.250;2023-06-10T01:17:58;19.40;93.30
16267;DHT22;8241;48.786;9.250;2023-06-10T01:20:25;19.40;93.10
16267;DHT22;8241;48.786;9.250;2023-06-10T01:22:58;19.50;93.00
16267;DHT22;8241;48.786;9.250;2023-06-10T01:25:26;19.50;93.00
16267;DHT22;8241;48.786;9.250;2023-06-10T01:27:58;19.50;93.00
16267;DHT22;8241;48.786;9.250;2023-06-10T01:30:29;19.60;93.10
16267;DHT22;8241;48.786;9.250;2023-06-10T01:32:59;19.60;93.10
16267;DHT22;8241;48.786;9.250;2023-06-10T01:35:30;19.60;93.10
16267;DHT22;8241;48.786;9.250;2023-06-10T01:38:00;19.50;93.10
16267;DHT22;8241;48.786;9.250;2023-06-10T01:40:29;19.40;93.30
16267;DHT22;8241;48.786;9.250;2023-06-10T01:42:56;19.40;93.50
16267;DHT22;8241;48.786;9.250;2023-06-10T01:45:23;19.30;93.60
16267;DHT22;8241;48.786;9.250;2023-06-10T01:47:50;19.20;93.70
16267;DHT22;8241;48.786;9.250;2023-06-10T01:50:17;19.20;93.80
16267;DHT22;8241;48.786;9.250;2023-06-10T01:52:44;19.20;93.90
16267;DHT22;8241;48.786;9.250;2023-06-10T01:55:16;19.10;94.10
16267;DHT22;8241;48.786;9.250;2023-06-10T01:57:46;19.10;94.10
16267;DHT22;8241;48.786;9.250;2023-06-10T02:00:14;19.00;94.00
16267;DHT22;8241;48.786;9.250;2023-06-10T02:02:41;19.10;94.00
16267;DHT22;8241;48.786;9.250;2023-06-10T02:05:10;19.10;93.90
16267;DHT22;8241;48.786;9.250;2023-06-10T02:07:37;19.00;93.90
16267;DHT22;8241;48.786;9.250;2023-06-10T02:10:05;19.00;93.90
16267;DHT22;8241;48.786;9.250;2023-06-10T02:12:34;18.90;94.20
16267;DHT22;8241;48.786;9.250;2023-06-10T02:15:01;18.90;94.00
16267;DHT22;8241;48.786;9.250;2023-06-10T02:17:31;18.90;94.00
16267;DHT22;8241;48.786;9.250;2023-06-10T02:19:59;18.90;94.10
16267;DHT22;8241;48.786;9.250;2023-06-10T02:22:31;18.90;94.10
16267;DHT22;8241;48.786;9.250;2023-06-10T02:24:59;18.80;94.10
16267;DHT22;8241;48.786;9.250;2023-06-10T02:27:26;18.80;94.20
16267;DHT22;8241;48.786;9.250;2023-06-10T02:29:56;18.80;94.10
16267;DHT22;8241;48.786;9.250;2023-06-10T02:32:23;18.90;94.00
16267;DHT22;8241;48.786;9.250;2023-06-10T02:34:51;18.90;93.70
16267;DHT22;8241;48.786;9.250;2023-06-10T02:37:21;18.90;93.60
16267;DHT22;8241;48.786;9.250;2023-06-10T02:39:58;18.90;93.60
16267;DHT22;8241;48.786;9.250;2023-06-10T02:42:26;19.00;93.50
16267;DHT22;8241;48.786;9.250;2023-06-10T02:44:57;19.00;93.50
16267;DHT22;8241;48.786;9.250;2023-06-10T02:47:37;19.00;93.50
16267;DHT22;8241;48.786;9.250;2023-06-10T02:50:05;19.00;93.40
16267;DHT22;8241;48.786;9.250;2023-06-10T02:52:36;19.00;93.40
16267;DHT22;8241;48.786;9.250;2023-06-10T02:55:05;19.00;93.50
16267;DHT22;8241;48.786;9.250;2023-06-10T02:57:34;18.90;93.50
16267;DHT22;8241;48.786;9.250;2023-06-10T03:00:05;19.00;93.50
16267;DHT22;8241;48.786;9.250;2023-06-10T03:02:35;18.90;93.50
16267;DHT22;8241;48.786;9.250;2023-06-10T03:05:05;18.90;93.70
16267;DHT22;8241;48.786;9.250;2023-06-10T03:07:34;18.80;93.80
16267;DHT22;8241;48.786;9.250;2023-06-10T03:10:04;18.70;93.90
16267;DHT22;8241;48.786;9.250;2023-06-10T03:12:33;18.70;94.20
16267;DHT22;8241;48.786;9.250;2023-06-10T03:15:00;18.60;94.20
16267;DHT22;8241;48.786;9.250;2023-06-10T03:17:32;18.70;94.40
16267;DHT22;8241;48.786;9.250;2023-06-10T03:19:59;18.60;94.40
16267;DHT22;8241;48.786;9.250;2023-06-10T03:22:26;18.60;94.50
16267;DHT22;8241;48.786;9.250;2023-06-10T03:25:02;18.60;94.70
16267;DHT22;8241;48.786;9.250;2023-06-10T03:27:30;18.60;94.60
16267;DHT22;8241;48.786;9.250;2023-06-10T03:30:00;18.60;94.50
16267;DHT22;8241;48.786;9.250;2023-06-10T03:32:29;18.60;94.50
16267;DHT22;8241;48.786;9.250;2023-06-10T03:34:59;18.60;94.70
16267;DHT22;8241;48.786;9.250;2023-06-10T03:37:30;18.50;94.80
16267;DHT22;8241;48.786;9.250;2023-06-10T03:39:57;18.50;94.90
16267;DHT22;8241;48.786;9.250;2023-06-10T03:42:26;18.40;94.90
16267;DHT22;8241;48.786;9.250;2023-06-10T03:44:54;18.30;94.90
16267;DHT22;8241;48.786;9.250;2023-06-10T03:47:21;18.30;95.10
16267;DHT22;8241;48.786;9.250;2023-06-10T03:49:48;18.30;95.20
16267;DHT22;8241;48.786;9.250;2023-06-10T03:52:17;18.30;95.30
16267;DHT22;8241;48.786;9.250;2023-06-10T03:54:44;18.30;95.20
16267;DHT22;8241;48.786;9.250;2023-06-10T03:57:11;18.40;95.30
16267;DHT22;8241;48.786;9.250;2023-06-10T03:59:38;18.40;95.30
16267;DHT22;8241;48.786;9.250;2023-06-10T04:02:05;18.40;95.40
16267;DHT22;8241;48.786;9.250;2023-06-10T04:04:33;18.40;95.40
16267;DHT22;8241;48.786;9.250;2023-06-10T04:07:00;18.40;95.50
16267;DHT22;8241;48.786;9.250;2023-06-10T04:09:28;18.40;95.50
16267;DHT22;8241;48.786;9.250;2023-06-10T04:11:56;18.40;95.40
16267;DHT22;8241;48.786;9.250;2023-06-10T04:14:24;18.40;95.40
16267;DHT22;8241;48.786;9.250;2023-06-10T04:16:51;18.40;95.50
16267;DHT22;8241;48.786;9.250;2023-06-10T04:19:18;18.40;95.50
16267;DHT22;8241;48.786;9.250;2023-06-10T04:21:46;18.30;95.70
16267;DHT22;8241;48.786;9.250;2023-06-10T04:24:13;18.40;95.70
16267;DHT22;8241;48.786;9.250;2023-06-10T04:26:43;18.40;95.70
16267;DHT22;8241;48.786;9.250;2023-06-10T04:29:10;18.40;95.80
16267;DHT22;8241;48.786;9.250;2023-06-10T04:31:38;18.40;95.80
16267;DHT22;8241;48.786;9.250;2023-06-10T04:34:06;18.40;95.90
16267;DHT22;8241;48.786;9.250;2023-06-10T04:36:33;18.40;96.00
16267;DHT22;8241;48.786;9.250;2023-06-10T04:39:00;18.40;96.00
16267;DHT22;8241;48.786;9.250;2023-06-10T04:41:29;18.40;96.10
16267;DHT22;8241;48.786;9.250;2023-06-10T04:43:58;18.40;96.00
16267;DHT22;8241;48.786;9.250;2023-06-10T04:46:25;18.40;96.00
16267;DHT22;8241;48.786;9.250;2023-06-10T04:48:52;18.40;96.00
16267;DHT22;8241;48.786;9.250;2023-06-10T04:51:20;18.40;96.00
16267;DHT22;8241;48.786;9.250;2023-06-10T04:53:46;18.40;95.90
16267;DHT22;8241;48.786;9.250;2023-06-10T04:56:13;18.50;96.00
16267;DHT22;8241;48.786;9.250;2023-06-10T04:58:41;18.50;96.10
16267;DHT22;8241;48.786;9.250;2023-06-10T05:01:09;18.50;96.10
16267;DHT22;8241;48.786;9.250;2023-06-10T05:03:37;18.50;96.60
16267;DHT22;8241;48.786;9.250;2023-06-10T05:06:04;18.50;96.30
16267;DHT22;8241;48.786;9.250;2023-06-10T05:08:34;18.60;96.30
16267;DHT22;8241;48.786;9.250;2023-06-10T05:11:01;18.60;96.30
16267;DHT22;8241;48.786;9.250;2023-06-10T05:13:27;18.60;96.30
16267;DHT22;8241;48.786;9.250;2023-06-10T05:15:55;18.60;96.30
16267;DHT22;8241;48.786;9.250;2023-06-10T05:18:23;18.60;96.20
16267;DHT22;8241;48.786;9.250;2023-06-10T05:20:53;18.70;96.00
16267;DHT22;8241;48.786;9.250;2023-06-10T05:23:20;18.80;95.90
16267;DHT22;8241;48.786;9.250;2023-06-10T05:25:50;18.80;95.80
16267;DHT22;8241;48.786;9.250;2023-06-10T05:28:17;18.90;95.60
16267;DHT22;8241;48.786;9.250;2023-06-10T05:30:48;19.00;95.60
16267;DHT22;8241;48.786;9.250;2023-06-10T05:33:15;19.00;95.60
16267;DHT22;8241;48.786;9.250;2023-06-10T05:35:45;19.10;95.60
16267;DHT22;8241;48.786;9.250;2023-06-10T05:38:12;19.10;95.50
16267;DHT22;8241;48.786;9.250;2023-06-10T05:40:39;19.20;95.50
16267;DHT22;8241;48.786;9.250;2023-06-10T05:43:08;19.20;95.30
16267;DHT22;8241;48.786;9.250;2023-06-10T05:45:37;19.30;95.70
16267;DHT22;8241;48.786;9.250;2023-06-10T05:48:05;19.30;96.10
16267;DHT22;8241;48.786;9.250;2023-06-10T05:50:34;19.30;96.10
16267;DHT22;8241;48.786;9.250;2023-06-10T05:53:06;19.40;95.90
16267;DHT22;8241;48.786;9.250;2023-06-10T05:55:40;19.50;95.50
16267;DHT22;8241;48.786;9.250;2023-06-10T05:58:07;19.70;95.40
16267;DHT22;8241;48.786;9.250;2023-06-10T06:00:34;19.90;95.00
16267;DHT22;8241;48.786;9.250;2023-06-10T06:03:02;20.30;94.80
16267;DHT22;8241;48.786;9.250;2023-06-10T06:05:29;20.70;94.50
16267;DHT22;8241;48.786;9.250;2023-06-10T06:08:00;21.20;94.00
16267;DHT22;8241;48.786;9.250;2023-06-10T06:10:28;21.60;93.60
16267;DHT22;8241;48.786;9.250;2023-06-10T06:12:55;22.00;93.00
16267;DHT22;8241;48.786;9.250;2023-06-10T06:15:22;22.40;92.30
16267;DHT22;8241;48.786;9.250;2023-06-10T06:17:52;22.70;91.60
16267;DHT22;8241;48.786;9.250;2023-06-10T06:20:19;23.00;90.70
16267;DHT22;8241;48.786;9.250;2023-06-10T06:22:48;23.20;90.10
16267;DHT22;8241;48.786;9.250;2023-06-10T06:25:17;23.30;90.20
16267;DHT22;8241;48.786;9.250;2023-06-10T06:27:47;23.50;90.10
16267;DHT22;8241;48.786;9.250;2023-06-10T06:30:14;23.50;88.80
16267;DHT22;8241;48.786;9.250;2023-06-10T06:32:41;23.50;88.80
16267;DHT22;8241;48.786;9.250;2023-06-10T06:35:08;23.70;88.90
16267;DHT22;8241;48.786;9.250;2023-06-10T06:37:35;23.80;88.10
16267;DHT22;8241;48.786;9.250;2023-06-10T06:40:16;24.10;88.10
16267;DHT22;8241;48.786;9.250;2023-06-10T06:42:43;24.30;86.70
16267;DHT22;8241;48.786;9.250;2023-06-10T06:45:44;24.40;86.10
16267;DHT22;8241;48.786;9.250;2023-06-10T06:48:11;24.60;86.80
16267;DHT22;8241;48.786;9.250;2023-06-10T06:50:40;24.70;86.00
16267;DHT22;8241;48.786;9.250;2023-06-10T06:53:07;24.70;85.40
16267;DHT22;8241;48.786;9.250;2023-06-10T06:55:36;24.50;85.90
16267;DHT22;8241;48.786;9.250;2023-06-10T06:58:03;24.30;87.00
16267;DHT22;8241;48.786;9.250;2023-06-10T07:00:30;24.10;87.70
16267;DHT22;8241;48.786;9.250;2023-06-10T07:02:59;23.90;88.00
16267;DHT22;8241;48.786;9.250;2023-06-10T07:05:26;23.80;88.30
16267;DHT22;8241;48.786;9.250;2023-06-10T07:07:53;23.60;89.30
16267;DHT22;8241;48.786;9.250;2023-06-10T07:10:21;23.50;89.40
16267;DHT22;8241;48.786;9.250;2023-06-10T07:12:48;23.40;89.10
16267;DHT22;8241;48.786;9.250;2023-06-10T07:15:15;23.30;90.00
16267;DHT22;8241;48.786;9.250;2023-06-10T07:17:42;23.30;90.00
16267;DHT22;8241;48.786;9.250;2023-06-10T07:20:12;23.40;90.20
16267;DHT22;8241;48.786;9.250;2023-06-10T07:22:42;23.50;90.00
16267;DHT22;8241;48.786;9.250;2023-06-10T07:25:11;23.60;90.00
16267;DHT22;8241;48.786;9.250;2023-06-10T07:27:47;23.70;89.40
16267;DHT22;8241;48.786;9.250;2023-06-10T07:30:14;23.40;88.90
16267;DHT22;8241;48.786;9.250;2023-06-10T07:32:41;23.30;89.70
16267;DHT22;8241;48.786;9.250;2023-06-10T07:35:11;23.30;89.50
16267;DHT22;8241;48.786;9.250;2023-06-10T07:37:38;23.30;90.10
16267;DHT22;8241;48.786;9.250;2023-06-10T07:40:07;23.30;90.20
16267;DHT22;8241;48.786;9.250;2023-06-10T07:42:35;23.50;90.40
16267;DHT22;8241;48.786;9.250;2023-06-10T07:45:02;23.60;90.10
16267;DHT22;8241;48.786;9.250;2023-06-10T07:47:33;23.80;90.00
16267;DHT22;8241;48.786;9.250;2023-06-10T07:50:01;24.00;89.20
16267;DHT22;8241;48.786;9.250;2023-06-10T07:52:29;24.20;88.60
16267;DHT22;8241;48.786;9.250;2023-06-10T07:54:58;24.20;88.80
16267;DHT22;8241;48.786;9.250;2023-06-10T07:57:26;24.30;88.60
16267;DHT22;8241;48.786;9.250;2023-06-10T07:59:57;24.30;88.10
16267;DHT22;8241;48.786;9.250;2023-06-10T08:02:25;24.40;88.00
16267;DHT22;8241;48.786;9.250;2023-06-10T08:04:52;24.40;87.80
16267;DHT22;8241;48.786;9.250;2023-06-10T08:07:19;24.40;87.70
16267;DHT22;8241;48.786;9.250;2023-06-10T08:09:49;24.50;87.40
16267;DHT22;8241;48.786;9.250;2023-06-10T08:12:16;24.50;86.60
16267;DHT22;8241;48.786;9.250;2023-06-10T08:14:44;24.60;86.10
16267;DHT22;8241;48.786;9.250;2023-06-10T08:17:16;24.60;85.80
16267;DHT22;8241;48.786;9.250;2023-06-10T08:19:49;24.60;85.60
16267;DHT22;8241;48.786;9.250;2023-06-10T08:22:16;24.70;86.20
16267;DHT22;8241;48.786;9.250;2023-06-10T08:24:43;24.80;85.00
16267;DHT22;8241;48.786;9.250;2023-06-10T08:27:11;24.90;85.20
16267;DHT22;8241;48.786;9.250;2023-06-10T08:29:39;24.90;84.80
16267;DHT22;8241;48.786;9.250;2023-06-10T08:32:06;24.90;84.50
16267;DHT22;8241;48.786;9.250;2023-06-10T08:34:34;24.90;85.10
16267;DHT22;8241;48.786;9.250;2023-06-10T08:37:01;25.00;84.80
16267;DHT22;8241;48.786;9.250;2023-06-10T08:39:28;25.00;84.00
16267;DHT22;8241;48.786;9.250;2023-06-10T08:42:11;25.00;83.90
16267;DHT22;8241;48.786;9.250;2023-06-10T08:44:40;25.10;83.90
16267;DHT22;8241;48.786;9.250;2023-06-10T08:47:13;25.10;83.50
16267;DHT22;8241;48.786;9.250;2023-06-10T08:49:44;25.30;84.60
16267;DHT22;8241;48.786;9.250;2023-06-10T08:52:15;25.30;84.60
16267;DHT22;8241;48.786;9.250;2023-06-10T08:54:43;25.30;83.80
16267;DHT22;8241;48.786;9.250;2023-06-10T08:57:15;25.40;83.10
16267;DHT22;8241;48.786;9.250;2023-06-10T08:59:47;25.30;82.60
16267;DHT22;8241;48.786;9.250;2023-06-10T09:02:15;25.30;84.20
16267;DHT22;8241;48.786;9.250;2023-06-10T09:04:46;25.40;81.90
16267;DHT22;8241;48.786;9.250;2023-06-10T09:07:15;25.40;82.40
16267;DHT22;8241;48.786;9.250;2023-06-10T09:09:43;25.30;83.00
16267;DHT22;8241;48.786;9.250;2023-06-10T09:12:11;25.30;82.70
16267;DHT22;8241;48.786;9.250;2023-06-10T09:14:38;25.40;83.50
16267;DHT22;8241;48.786;9.250;2023-06-10T09:17:07;25.50;84.00
16267;DHT22;8241;48.786;9.250;2023-06-10T09:19:35;25.60;82.90
16267;DHT22;8241;48.786;9.250;2023-06-10T09:22:05;25.70;83.10
16267;DHT22;8241;48.786;9.250;2023-06-10T09:24:41;25.80;82.80
16267;DHT22;8241;48.786;9.250;2023-06-10T09:27:11;25.80;80.80
16267;DHT22;8241;48.786;9.250;2023-06-10T09:29:47;25.70;81.70
16267;DHT22;8241;48.786;9.250;2023-06-10T09:32:19;25.90;83.00
16267;DHT22;8241;48.786;9.250;2023-06-10T09:34:49;26.00;81.80
16267;DHT22;8241;48.786;9.250;2023-06-10T09:37:20;26.00;81.40
16267;DHT22;8241;48.786;9.250;2023-06-10T09:40:02;26.00;81.20
16267;DHT22;8241;48.786;9.250;2023-06-10T09:42:32;26.00;81.60
16267;DHT22;8241;48.786;9.250;2023-06-10T09:45:02;26.10;81.50
16267;DHT22;8241;48.786;9.250;2023-06-10T09:47:33;26.00;81.30
16267;DHT22;8241;48.786;9.250;2023-06-10T09:50:01;26.00;82.90
16267;DHT22;8241;48.786;9.250;2023-06-10T09:52:29;26.00;82.40
16267;DHT22;8241;48.786;9.250;2023-06-10T09:55:01;26.20;80.60
16267;DHT22;8241;48.786;9.250;2023-06-10T09:57:31;26.20;80.70
16267;DHT22;8241;48.786;9.250;2023-06-10T09:59:59;26.20;80.70
16267;DHT22;8241;48.786;9.250;2023-06-10T10:02:45;26.20;81.10
16267;DHT22;8241;48.786;9.250;2023-06-10T10:05:16;26.20;81.90
16267;DHT22;8241;48.786;9.250;2023-06-10T10:07:43;26.20;81.20
16267;DHT22;8241;48.786;9.250;2023-06-10T10:10:11;26.30;82.10
16267;DHT22;8241;48.786;9.250;2023-06-10T10:12:39;26.40;81.80
16267;DHT22;8241;48.786;9.250;2023-06-10T10:15:11;26.50;81.60
16267;DHT22;8241;48.786;9.250;2023-06-10T10:17:42;26.50;80.90
16267;DHT22;8241;48.786;9.250;2023-06-10T10:20:13;26.30;80.70
16267;DHT22;8241;48.786;9.250;2023-06-10T10:22:43;26.20;81.20
16267;DHT22;8241;48.786;9.250;2023-06-10T10:25:16;26.20;81.90
16267;DHT22;8241;48.786;9.250;2023-06-10T10:27:54;26.30;81.70
16267;DHT22;8241;48.786;9.250;2023-06-10T10:30:22;26.40;79.90
16267;DHT22;8241;48.786;9.250;2023-06-10T10:32:56;26.40;80.20
16267;DHT22;8241;48.786;9.250;2023-06-10T10:35:27;26.30;80.60
16267;DHT22;8241;48.786;9.250;2023-06-10T10:37:55;26.30;80.20
16267;DHT22;8241;48.786;9.250;2023-06-10T10:40:22;26.30;78.40
16267;DHT22;8241;48.786;9.250;2023-06-10T10:42:50;26.30;79.70
16267;DHT22;8241;48.786;9.250;2023-06-10T10:45:18;26.40;79.00
16267;DHT22;8241;48.786;9.250;2023-06-10T10:47:46;26.50;79.30
16267;DHT22;8241;48.786;9.250;2023-06-10T10:50:14;26.60;77.00
16267;DHT22;8241;48.786;9.250;2023-06-10T10:52:53;26.80;77.90
16267;DHT22;8241;48.786;9.250;2023-06-10T10:55:21;26.90;78.40
16267;DHT22;8241;48.786;9.250;2023-06-10T10:57:55;27.10;78.00
16267;DHT22;8241;48.786;9.250;2023-06-10T11:00:30;27.10;77.50
16267;DHT22;8241;48.786;9.250;2023-06-10T11:03:13;27.20;78.00
16267;DHT22;8241;48.786;9.250;2023-06-10T11:05:42;27.20;78.60
16267;DHT22;8241;48.786;9.250;2023-06-10T11:08:45;27.30;78.20
16267;DHT22;8241;48.786;9.250;2023-06-10T11:11:18;27.30;77.70
16267;DHT22;8241;48.786;9.250;2023-06-10T11:13:58;27.40;78.00
16267;DHT22;8241;48.786;9.250;2023-06-10T11:16:27;27.50;77.70
16267;DHT22;8241;48.786;9.250;2023-06-10T11:18:55;27.50;76.80
16267;DHT22;8241;48.786;9.250;2023-06-10T11:21:23;27.50;76.80
16267;DHT22;8241;48.786;9.250;2023-06-10T11:23:52;27.50;77.00
16267;DHT22;8241;48.786;9.250;2023-06-10T11:26:30;27.60;77.30
16267;DHT22;8241;48.786;9.250;2023-06-10T11:29:07;27.70;75.20
16267;DHT22;8241;48.786;9.250;2023-06-10T11:31:43;27.60;75.00
16267;DHT22;8241;48.786;9.250;2023-06-10T11:34:11;27.70;75.30
16267;DHT22;8241;48.786;9.250;2023-06-10T11:36:42;27.60;74.60
16267;DHT22;8241;48.786;9.250;2023-06-10T11:39:14;27.50;75.70
16267;DHT22;8241;48.786;9.250;2023-06-10T11:41:41;27.50;76.10
16267;DHT22;8241;48.786;9.250;2023-06-10T11:44:10;27.60;75.00
16267;DHT22;8241;48.786;9.250;2023-06-10T11:46:37;27.60;76.30
16267;DHT22;8241;48.786;9.250;2023-06-10T11:49:05;27.70;75.30
16267;DHT22;8241;48.786;9.250;2023-06-10T11:51:34;27.90;75.40
16267;DHT22;8241;48.786;9.250;2023-06-10T11:54:01;28.00;74.60
16267;DHT22;8241;48.786;9.250;2023-06-10T11:56:31;27.90;75.70
16267;DHT22;8241;48.786;9.250;2023-06-10T11:58:59;27.80;74.70
16267;DHT22;8241;48.786;9.250;2023-06-10T12:01:30;27.90;73.80
16267;DHT22;8241;48.786;9.250;2023-06-10T12:04:02;27.90;74.30
16267;DHT22;8241;48.786;9.250;2023-06-10T12:06:40;27.80;73.70
16267;DHT22;8241;48.786;9.250;2023-06-10T12:09:14;27.70;74.30
16267;DHT22;8241;48.786;9.250;2023-06-10T12:11:43;27.60;74.70
16267;DHT22;8241;48.786;9.250;2023-06-10T12:14:13;27.70;74.90
16267;DHT22;8241;48.786;9.250;2023-06-10T12:16:40;27.90;75.20
16267;DHT22;8241;48.786;9.250;2023-06-10T12:19:14;28.10;75.10
16267;DHT22;8241;48.786;9.250;2023-06-10T12:21:41;28.40;74.00
16267;DHT22;8241;48.786;9.250;2023-06-10T12:24:09;28.40;73.30
16267;DHT22;8241;48.786;9.250;2023-06-10T12:26:40;28.20;72.40
16267;DHT22;8241;48.786;9.250;2023-06-10T12:29:16;27.90;73.70
16267;DHT22;8241;48.786;9.250;2023-06-10T12:31:58;27.80;74.20
16267;DHT22;8241;48.786;9.250;2023-06-10T12:34:36;27.60;73.90
16267;DHT22;8241;48.786;9.250;2023-06-10T12:37:04;27.50;74.10
16267;DHT22;8241;48.786;9.250;2023-06-10T12:39:34;27.70;74.80
16267;DHT22;8241;48.786;9.250;2023-06-10T12:42:01;28.00;74.40
16267;DHT22;8241;48.786;9.250;2023-06-10T12:44:32;28.10;74.40
16267;DHT22;8241;48.786;9.250;2023-06-10T12:47:00;28.20;73.50
16267;DHT22;8241;48.786;9.250;2023-06-10T12:49:26;28.20;72.40
16267;DHT22;8241;48.786;9.250;2023-06-10T12:51:56;28.20;71.80
16267;DHT22;8241;48.786;9.250;2023-06-10T12:54:24;28.30;71.50
16267;DHT22;8241;48.786;9.250;2023-06-10T12:56:51;28.50;72.80
16267;DHT22;8241;48.786;9.250;2023-06-10T12:59:18;28.90;71.00
16267;DHT22;8241;48.786;9.250;2023-06-10T13:01:54;29.20;71.50
16267;DHT22;8241;48.786;9.250;2023-06-10T13:04:23;29.50;70.80
16267;DHT22;8241;48.786;9.250;2023-06-10T13:06:50;29.90;69.90
16267;DHT22;8241;48.786;9.250;2023-06-10T13:09:18;30.30;69.70
16267;DHT22;8241;48.786;9.250;2023-06-10T13:11:45;30.60;67.90
16267;DHT22;8241;48.786;9.250;2023-06-10T13:14:12;31.00;67.80
16267;DHT22;8241;48.786;9.250;2023-06-10T13:16:38;31.60;66.60
16267;DHT22;8241;48.786;9.250;2023-06-10T13:19:09;32.30;64.50
16267;DHT22;8241;48.786;9.250;2023-06-10T13:21:38;33.00;61.30
16267;DHT22;8241;48.786;9.250;2023-06-10T13:24:08;33.40;61.10
16267;DHT22;8241;48.786;9.250;2023-06-10T13:26:35;33.70;61.40
16267;DHT22;8241;48.786;9.250;2023-06-10T13:29:02;34.00;60.40
16267;DHT22;8241;48.786;9.250;2023-06-10T13:31:28;34.00;59.90
16267;DHT22;8241;48.786;9.250;2023-06-10T13:33:55;33.90;60.10
16267;DHT22;8241;48.786;9.250;2023-06-10T13:36:24;33.60;60.70
16267;DHT22;8241;48.786;9.250;2023-06-10T13:38:51;32.80;61.10
16267;DHT22;8241;48.786;9.250;2023-06-10T13:41:18;31.90;62.90
16267;DHT22;8241;48.786;9.250;2023-06-10T13:43:45;31.30;64.30
16267;DHT22;8241;48.786;9.250;2023-06-10T13:46:12;31.00;64.70
16267;DHT22;8241;48.786;9.250;2023-06-10T13:48:39;31.10;64.10
16267;DHT22;8241;48.786;9.250;2023-06-10T13:51:06;31.60;63.60
16267;DHT22;8241;48.786;9.250;2023-06-10T13:53:36;32.50;62.60
16267;DHT22;8241;48.786;9.250;2023-06-10T13:56:03;33.10;61.40
16267;DHT22;8241;48.786;9.250;2023-06-10T13:58:31;33.80;61.30
16267;DHT22;8241;48.786;9.250;2023-06-10T14:01:04;34.20;60.00
16267;DHT22;8241;48.786;9.250;2023-06-10T14:03:31;34.60;60.10
16267;DHT22;8241;48.786;9.250;2023-06-10T14:05:58;34.90;58.70
16267;DHT22;8241;48.786;9.250;2023-06-10T14:08:24;34.60;58.80
16267;DHT22;8241;48.786;9.250;2023-06-10T14:10:53;33.60;59.90
16267;DHT22;8241;48.786;9.250;2023-06-10T14:13:20;32.50;61.60
16267;DHT22;8241;48.786;9.250;2023-06-10T14:15:46;31.70;63.20
16267;DHT22;8241;48.786;9.250;2023-06-10T14:18:13;31.00;64.40
16267;DHT22;8241;48.786;9.250;2023-06-10T14:20:41;30.60;66.00
16267;DHT22;8241;48.786;9.250;2023-06-10T14:23:08;30.60;65.60
16267;DHT22;8241;48.786;9.250;2023-06-10T14:25:36;30.90;65.40
16267;DHT22;8241;48.786;9.250;2023-06-10T14:28:04;31.30;64.70
16267;DHT22;8241;48.786;9.250;2023-06-10T14:30:32;31.60;63.30
16267;DHT22;8241;48.786;9.250;2023-06-10T14:32:59;31.60;63.10
16267;DHT22;8241;48.786;9.250;2023-06-10T14:35:26;31.70;64.00
16267;DHT22;8241;48.786;9.250;2023-06-10T14:37:54;31.80;63.70
16267;DHT22;8241;48.786;9.250;2023-06-10T14:40:27;31.80;63.70
16267;DHT22;8241;48.786;9.250;2023-06-10T14:42:55;31.50;64.30
16267;DHT22;8241;48.786;9.250;2023-06-10T14:45:26;31.40;64.30
16267;DHT22;8241;48.786;9.250;2023-06-10T14:47:55;31.30;64.30
16267;DHT22;8241;48.786;9.250;2023-06-10T14:50:22;31.00;64.90
16267;DHT22;8241;48.786;9.250;2023-06-10T14:52:51;30.80;65.30
16267;DHT22;8241;48.786;9.250;2023-06-10T14:55:17;30.50;64.80
16267;DHT22;8241;48.786;9.250;2023-06-10T14:57:44;30.40;66.60
16267;DHT22;8241;48.786;9.250;2023-06-10T15:00:15;30.40;65.80
16267;DHT22;8241;48.786;9.250;2023-06-10T15:02:46;30.00;67.00
16267;DHT22;8241;48.786;9.250;2023-06-10T15:05:14;29.80;67.80
16267;DHT22;8241;48.786;9.250;2023-06-10T15:07:42;29.80;68.00
16267;DHT22;8241;48.786;9.250;2023-06-10T15:10:10;30.00;68.10
16267;DHT22;8241;48.786;9.250;2023-06-10T15:12:37;30.00;67.50
16267;DHT22;8241;48.786;9.250;2023-06-10T15:15:05;30.20;67.80
16267;DHT22;8241;48.786;9.250;2023-06-10T15:17:33;30.20;65.80
16267;DHT22;8241;48.786;9.250;2023-06-10T15:20:01;30.10;66.00
16267;DHT22;8241;48.786;9.250;2023-06-10T15:22:29;29.90;65.10
16267;DHT22;8241;48.786;9.250;2023-06-10T15:24:56;29.90;66.20
16267;DHT22;8241;48.786;9.250;2023-06-10T15:27:26;29.90;66.60
16267;DHT22;8241;48.786;9.250;2023-06-10T15:29:53;30.00;66.80
16267;DHT22;8241;48.786;9.250;2023-06-10T15:32:20;30.10;66.80
16267;DHT22;8241;48.786;9.250;2023-06-10T15:34:47;30.20;66.50
16267;DHT22;8241;48.786;9.250;2023-06-10T15:37:17;30.20;66.70
16267;DHT22;8241;48.786;9.250;2023-06-10T15:39:44;30.20;67.20
16267;DHT22;8241;48.786;9.250;2023-06-10T15:42:11;30.30;66.30
16267;DHT22;8241;48.786;9.250;2023-06-10T15:44:38;30.20;65.70
16267;DHT22;8241;48.786;9.250;2023-06-10T15:47:05;30.20;64.70
16267;DHT22;8241;48.786;9.250;2023-06-10T15:49:32;30.10;65.20
16267;DHT22;8241;48.786;9.250;2023-06-10T15:51:59;29.90;64.70
16267;DHT22;8241;48.786;9.250;2023-06-10T15:54:28;29.90;65.70
16267;DHT22;8241;48.786;9.250;2023-06-10T15:56:54;29.80;66.30